createdAt,value
2017-05-15T00:00:30.174Z,84.30
2017-05-15T00:02:58.482Z,84.70
2017-05-15T00:05:26.899Z,84.30
2017-05-15T00:07:55.214Z,84.80
2017-05-15T00:10:23.575Z,84.80
2017-05-15T00:12:52.635Z,84.30
2017-05-15T00:15:21.034Z,84.50
2017-05-15T00:17:49.344Z,85.00
2017-05-15T00:20:18.394Z,85.00
2017-05-15T00:22:46.779Z,84.90
2017-05-15T00:25:15.092Z,85.30
2017-05-15T00:27:44.146Z,85.20
2017-05-15T00:30:12.458Z,85.20
2017-05-15T00:32:41.543Z,85.60
2017-05-15T00:35:09.932Z,85.70
2017-05-15T00:37:38.298Z,85.40
2017-05-15T00:40:06.611Z,85.30
2017-05-15T00:42:34.936Z,86.20
2017-05-15T00:45:03.245Z,85.50
2017-05-15T00:47:31.554Z,85.50
2017-05-15T00:49:59.869Z,85.60
2017-05-15T00:52:34.187Z,85.20
2017-05-15T00:55:02.585Z,85.20
2017-05-15T00:57:30.961Z,85.20
2017-05-15T00:59:59.341Z,84.80
2017-05-15T01:02:27.663Z,84.50
2017-05-15T01:04:55.972Z,84.50
2017-05-15T01:07:24.297Z,84.70
2017-05-15T01:09:53.376Z,84.70
2017-05-15T01:12:21.682Z,84.30
2017-05-15T01:14:50.737Z,84.20
2017-05-15T01:17:19.131Z,84.40
2017-05-15T01:19:47.531Z,84.90
2017-05-15T01:22:16.590Z,84.70
2017-05-15T01:24:44.937Z,84.80
2017-05-15T01:27:13.249Z,84.80
2017-05-15T01:29:41.559Z,85.50
2017-05-15T01:32:10.650Z,86.60
2017-05-15T01:34:38.960Z,85.60
2017-05-15T01:37:07.294Z,86.20
2017-05-15T01:39:35.619Z,86.20
2017-05-15T01:42:03.958Z,86.50
2017-05-15T01:44:32.266Z,87.00
2017-05-15T01:47:01.323Z,86.80
2017-05-15T01:49:29.691Z,87.00
2017-05-15T01:51:58.027Z,87.00
2017-05-15T01:54:26.351Z,87.20
2017-05-15T01:56:54.757Z,88.10
2017-05-15T01:59:23.068Z,87.20
2017-05-15T02:01:51.396Z,87.00
2017-05-15T02:04:19.777Z,87.20
2017-05-15T02:06:48.082Z,87.10
2017-05-15T02:09:17.131Z,86.60
2017-05-15T02:11:45.437Z,86.70
2017-05-15T02:14:13.763Z,86.50
2017-05-15T02:16:42.075Z,86.50
2017-05-15T02:19:10.383Z,87.10
2017-05-15T02:21:38.697Z,87.40
2017-05-15T02:24:07.003Z,87.80
2017-05-15T02:26:35.307Z,87.60
2017-05-15T02:29:03.691Z,87.40
2017-05-15T02:31:32.063Z,87.80
2017-05-15T02:34:00.458Z,87.60
2017-05-15T02:36:28.778Z,87.70
2017-05-15T02:38:57.086Z,87.70
2017-05-15T02:41:25.408Z,87.60
2017-05-15T02:43:54.478Z,87.60
2017-05-15T02:46:22.855Z,87.30
2017-05-15T02:48:51.200Z,87.40
2017-05-15T02:51:19.508Z,87.60
2017-05-15T02:53:47.831Z,87.70
2017-05-15T02:56:16.154Z,87.40
2017-05-15T02:58:44.464Z,87.80
2017-05-15T03:01:12.776Z,87.80
2017-05-15T03:03:41.085Z,88.00
2017-05-15T03:06:09.496Z,88.00
2017-05-15T03:08:37.874Z,87.90
2017-05-15T03:11:06.243Z,88.20
2017-05-15T03:13:34.554Z,88.40
2017-05-15T03:16:03.600Z,88.70
2017-05-15T03:18:31.913Z,88.20
2017-05-15T03:21:00.223Z,88.30
2017-05-15T03:23:28.531Z,88.50
2017-05-15T03:25:56.834Z,88.50
2017-05-15T03:28:25.151Z,88.50
2017-05-15T03:30:53.474Z,88.30
2017-05-15T03:33:21.873Z,88.30
2017-05-15T03:35:50.247Z,88.30
2017-05-15T03:38:18.645Z,88.20
2017-05-15T03:40:46.959Z,88.00
2017-05-15T03:43:15.300Z,88.60
2017-05-15T03:45:43.620Z,88.30
2017-05-15T03:48:11.931Z,88.00
2017-05-15T03:50:40.300Z,87.90
2017-05-15T03:53:08.747Z,87.80
2017-05-15T03:55:37.090Z,87.30
2017-05-15T03:58:05.408Z,86.90
2017-05-15T04:00:33.750Z,87.60
2017-05-15T04:03:02.126Z,87.30
2017-05-15T04:05:30.438Z,87.40
2017-05-15T04:07:58.760Z,87.70
2017-05-15T04:10:27.071Z,87.00
2017-05-15T04:12:55.420Z,87.40
2017-05-15T04:15:23.745Z,87.70
2017-05-15T04:17:52.798Z,87.70
2017-05-15T04:20:21.119Z,87.30
2017-05-15T04:22:50.197Z,87.20
2017-05-15T04:25:18.510Z,87.20
2017-05-15T04:27:46.820Z,87.20
2017-05-15T04:30:15.131Z,86.00
2017-05-15T04:32:43.519Z,85.60
2017-05-15T04:35:11.834Z,85.50
2017-05-15T04:37:40.157Z,85.20
2017-05-15T04:40:08.546Z,86.50
2017-05-15T04:42:36.867Z,86.00
2017-05-15T04:45:05.170Z,85.70
2017-05-15T04:47:33.665Z,85.60
2017-05-15T04:50:01.978Z,85.90
2017-05-15T04:52:31.062Z,86.50
2017-05-15T04:54:59.374Z,85.70
2017-05-15T04:57:27.695Z,86.10
2017-05-15T04:59:56.094Z,86.50
2017-05-15T05:02:24.408Z,86.60
2017-05-15T05:04:52.734Z,87.60
2017-05-15T05:07:21.850Z,86.70
2017-05-15T05:09:50.174Z,86.50
2017-05-15T05:12:18.510Z,86.70
2017-05-15T05:14:46.831Z,85.50
2017-05-15T05:17:15.167Z,79.10
2017-05-15T05:19:49.977Z,69.40
2017-05-15T05:22:30.021Z,63.20
2017-05-15T05:25:22.775Z,58.70
2017-05-15T05:31:17.922Z,56.20
2017-05-15T05:33:46.239Z,55.50
2017-05-15T05:36:27.351Z,54.00
2017-05-15T05:39:12.361Z,52.50
2017-05-15T05:42:01.282Z,52.10
2017-05-15T05:44:29.707Z,50.40
2017-05-15T05:46:58.123Z,49.30
2017-05-15T05:49:26.454Z,50.20
2017-05-15T05:51:54.766Z,49.10
2017-05-15T05:54:25.586Z,49.80
2017-05-15T05:57:10.425Z,48.20
2017-05-15T06:00:03.506Z,48.90
2017-05-15T06:02:52.582Z,48.50
2017-05-15T06:05:32.809Z,46.90
2017-05-15T06:08:12.901Z,46.40
2017-05-15T06:10:53.954Z,46.30
2017-05-15T06:13:34.215Z,47.60
2017-05-15T06:16:25.000Z,48.10
2017-05-15T06:18:52.898Z,46.30
2017-05-15T06:21:20.755Z,45.10
2017-05-15T06:24:00.915Z,46.50
2017-05-15T06:26:41.381Z,46.60
2017-05-15T06:29:09.759Z,45.00
2017-05-15T06:31:38.137Z,44.60
2017-05-15T06:34:06.451Z,47.00
2017-05-15T06:36:34.775Z,43.90
2017-05-15T06:39:14.939Z,46.00
2017-05-15T06:41:55.208Z,44.80
2017-05-15T06:44:23.579Z,46.10
2017-05-15T06:46:51.967Z,43.90
2017-05-15T06:49:20.346Z,44.20
2017-05-15T06:51:48.661Z,44.30
2017-05-15T06:54:17.827Z,45.10
2017-05-15T06:56:46.207Z,45.70
2017-05-15T06:59:14.528Z,44.70
2017-05-15T07:01:42.832Z,43.20
2017-05-15T07:04:11.243Z,46.30
2017-05-15T07:06:39.580Z,45.50
2017-05-15T07:09:07.890Z,42.40
2017-05-15T07:11:36.218Z,43.40
2017-05-15T07:14:04.550Z,40.30
2017-05-15T07:16:32.946Z,42.10
2017-05-15T07:19:01.254Z,40.60
2017-05-15T07:21:29.559Z,39.40
2017-05-15T07:23:57.976Z,40.90
2017-05-15T07:26:26.347Z,41.00
2017-05-15T07:28:54.652Z,44.30
2017-05-15T07:31:23.730Z,41.00
2017-05-15T07:33:52.047Z,44.10
2017-05-15T07:36:20.390Z,44.20
2017-05-15T07:38:48.749Z,45.10
2017-05-15T07:41:17.144Z,43.00
2017-05-15T07:43:45.463Z,41.80
2017-05-15T07:46:13.770Z,39.60
2017-05-15T07:48:42.078Z,39.70
2017-05-15T07:51:10.387Z,42.90
2017-05-15T07:53:39.450Z,42.10
2017-05-15T07:56:07.760Z,45.10
2017-05-15T07:58:36.829Z,45.20
2017-05-15T08:01:05.199Z,43.10
2017-05-15T08:03:33.506Z,44.40
2017-05-15T08:06:02.588Z,42.90
2017-05-15T08:08:30.886Z,42.10
2017-05-15T08:10:59.957Z,44.40
2017-05-15T08:13:28.255Z,45.40
2017-05-15T08:15:57.306Z,45.80
2017-05-15T08:18:25.707Z,44.50
2017-05-15T08:20:54.012Z,44.00
2017-05-15T08:23:23.093Z,42.50
2017-05-15T08:25:51.462Z,44.40
2017-05-15T08:28:19.851Z,42.90
2017-05-15T08:30:48.162Z,43.10
2017-05-15T08:33:16.466Z,46.90
2017-05-15T08:35:44.794Z,42.10
2017-05-15T08:38:13.169Z,45.60
2017-05-15T08:40:41.543Z,41.70
2017-05-15T08:43:09.919Z,44.40
2017-05-15T08:45:38.223Z,47.40
2017-05-15T08:48:07.279Z,45.10
2017-05-15T08:50:35.592Z,44.40
2017-05-15T08:53:03.950Z,43.20
2017-05-15T08:55:32.266Z,43.70
2017-05-15T08:58:01.323Z,45.90
2017-05-15T09:00:29.626Z,46.00
2017-05-15T09:02:58.703Z,43.70
2017-05-15T09:05:27.069Z,41.20
2017-05-15T09:07:55.371Z,43.80
2017-05-15T09:10:23.692Z,43.60
2017-05-15T09:12:52.024Z,43.30
2017-05-15T09:15:20.334Z,45.30
2017-05-15T09:17:48.642Z,41.50
2017-05-15T09:20:16.963Z,42.00
2017-05-15T09:22:45.335Z,42.00
2017-05-15T09:25:13.719Z,44.00
2017-05-15T09:27:42.031Z,44.20
2017-05-15T09:30:10.572Z,42.20
2017-05-15T09:32:38.911Z,46.30
2017-05-15T09:35:07.225Z,44.90
2017-05-15T09:37:35.614Z,43.90
2017-05-15T09:40:03.987Z,42.50
2017-05-15T09:42:32.301Z,43.20
2017-05-15T09:45:01.353Z,41.10
2017-05-15T09:47:29.655Z,45.00
2017-05-15T09:49:57.966Z,42.30
2017-05-15T09:52:26.307Z,44.50
2017-05-15T09:54:54.635Z,43.60
2017-05-15T09:57:22.975Z,41.50
2017-05-15T09:59:51.346Z,42.30
2017-05-15T10:02:19.657Z,43.30
2017-05-15T10:04:47.964Z,42.80
2017-05-15T10:07:16.381Z,42.40
2017-05-15T10:09:44.687Z,42.30
2017-05-15T10:12:13.735Z,46.40
2017-05-15T10:14:42.087Z,44.80
2017-05-15T10:17:10.413Z,42.20
2017-05-15T10:19:38.783Z,41.00
2017-05-15T10:22:07.087Z,43.60
2017-05-15T10:24:36.128Z,39.80
2017-05-15T10:27:04.439Z,39.30
2017-05-15T10:29:32.828Z,41.70
2017-05-15T10:32:01.197Z,40.40
2017-05-15T10:34:29.581Z,40.20
2017-05-15T10:36:57.888Z,37.70
2017-05-15T10:39:26.942Z,37.40
2017-05-15T10:41:55.323Z,35.30
2017-05-15T10:44:23.719Z,38.00
2017-05-15T10:46:52.099Z,38.50
2017-05-15T10:49:20.412Z,40.50
2017-05-15T10:51:48.757Z,40.40
2017-05-15T10:54:17.075Z,37.90
2017-05-15T10:56:45.388Z,39.30
2017-05-15T10:59:13.792Z,38.50
2017-05-15T11:01:42.106Z,36.90
2017-05-15T11:04:10.447Z,38.10
2017-05-15T11:06:38.755Z,35.30
2017-05-15T11:09:07.806Z,36.30
2017-05-15T11:11:36.207Z,40.30
2017-05-15T11:14:04.511Z,39.40
2017-05-15T11:16:33.558Z,39.40
2017-05-15T11:19:01.950Z,42.30
2017-05-15T11:21:30.330Z,42.20
2017-05-15T11:23:58.626Z,39.80
2017-05-15T11:26:26.994Z,36.00
2017-05-15T11:28:55.375Z,39.10
2017-05-15T11:31:23.746Z,36.40
2017-05-15T11:33:52.052Z,34.40
2017-05-15T11:36:21.138Z,37.00
2017-05-15T11:38:49.511Z,39.30
2017-05-15T11:41:17.887Z,37.00
2017-05-15T11:43:46.276Z,36.00
2017-05-15T11:46:14.592Z,37.30
2017-05-15T11:48:42.919Z,33.80
2017-05-15T11:51:11.299Z,36.40
2017-05-15T11:53:39.606Z,40.50
2017-05-15T11:56:08.679Z,35.10
2017-05-15T11:58:37.776Z,30.60
2017-05-15T12:01:06.150Z,35.60
2017-05-15T12:03:34.529Z,32.70
2017-05-15T12:06:02.827Z,34.90
2017-05-15T12:08:31.137Z,32.10
2017-05-15T12:10:59.454Z,33.10
2017-05-15T12:13:27.771Z,30.80
2017-05-15T12:15:56.815Z,34.40
2017-05-15T12:18:25.121Z,34.30
2017-05-15T12:20:53.418Z,35.90
2017-05-15T12:23:22.470Z,34.70
2017-05-15T12:25:50.870Z,35.80
2017-05-15T12:28:19.269Z,34.60
2017-05-15T12:30:47.649Z,36.30
2017-05-15T12:33:16.025Z,36.40
2017-05-15T12:35:44.405Z,36.40
2017-05-15T12:38:12.712Z,35.50
2017-05-15T12:40:41.054Z,33.50
2017-05-15T12:43:09.356Z,32.70
2017-05-15T12:45:38.407Z,33.00
2017-05-15T12:48:06.706Z,36.60
2017-05-15T12:50:35.092Z,36.60
2017-05-15T12:53:03.460Z,37.20
2017-05-15T12:55:31.839Z,36.20
2017-05-15T12:58:00.202Z,33.40
2017-05-15T13:00:28.517Z,34.60
2017-05-15T13:02:56.896Z,32.60
2017-05-15T13:05:25.254Z,31.10
2017-05-15T13:07:53.645Z,36.30
2017-05-15T13:10:22.027Z,35.30
2017-05-15T13:12:50.338Z,35.10
2017-05-15T13:15:18.683Z,32.10
2017-05-15T13:17:47.056Z,34.80
2017-05-15T13:20:15.358Z,31.40
2017-05-15T13:22:44.446Z,33.60
2017-05-15T13:25:12.817Z,35.60
2017-05-15T13:27:41.127Z,34.20
2017-05-15T13:30:10.174Z,32.30
2017-05-15T13:32:38.487Z,34.70
2017-05-15T13:35:07.555Z,35.90
2017-05-15T13:37:35.859Z,34.60
2017-05-15T13:45:52.493Z,32.80
2017-05-15T13:48:20.861Z,34.90
2017-05-15T13:50:49.159Z,32.30
2017-05-15T13:53:18.221Z,35.40
2017-05-15T13:55:46.526Z,34.80
2017-05-15T13:58:14.891Z,35.50
2017-05-15T14:00:43.282Z,34.40
2017-05-15T14:03:11.662Z,36.40
2017-05-15T14:05:39.968Z,32.10
2017-05-15T14:08:09.054Z,34.20
2017-05-15T14:10:38.127Z,34.20
2017-05-15T14:13:06.449Z,32.60
2017-05-15T14:15:34.755Z,35.60
2017-05-15T14:18:03.068Z,33.80
2017-05-15T14:20:31.378Z,34.20
2017-05-15T14:23:00.434Z,32.70
2017-05-15T14:25:28.819Z,33.30
2017-05-15T14:27:57.202Z,35.00
2017-05-15T14:30:25.526Z,33.50
2017-05-15T14:32:53.848Z,33.60
2017-05-15T14:35:22.226Z,31.10
2017-05-15T14:37:50.610Z,34.60
2017-05-15T14:40:18.937Z,34.60
2017-05-15T14:42:47.279Z,34.00
2017-05-15T14:45:15.590Z,30.30
2017-05-15T14:47:43.929Z,31.80
2017-05-15T14:50:12.238Z,30.60
2017-05-15T14:52:41.303Z,32.20
2017-05-15T14:55:11.026Z,34.20
2017-05-15T14:57:39.401Z,36.00
2017-05-15T15:00:07.738Z,33.60
2017-05-15T15:02:36.164Z,33.10
2017-05-15T15:05:04.527Z,33.70
2017-05-15T15:10:26.586Z,33.80
2017-05-15T15:12:54.886Z,32.00
2017-05-15T15:15:23.230Z,31.70
2017-05-15T15:17:51.532Z,32.20
2017-05-15T15:20:19.843Z,33.60
2017-05-15T15:22:48.182Z,32.50
2017-05-15T15:25:16.482Z,32.30
2017-05-15T15:27:45.545Z,33.00
2017-05-15T15:30:13.850Z,33.60
2017-05-15T15:32:42.195Z,32.20
2017-05-15T15:35:10.494Z,32.60
2017-05-15T15:37:38.806Z,33.50
2017-05-15T15:40:07.248Z,33.00
2017-05-15T15:42:35.635Z,34.40
2017-05-15T15:45:03.950Z,33.50
2017-05-15T15:47:32.287Z,33.20
2017-05-15T15:50:00.603Z,32.70
2017-05-15T15:52:29.655Z,32.90
2017-05-15T15:54:58.042Z,33.90
2017-05-15T15:57:26.422Z,33.60
2017-05-15T16:00:02.341Z,33.30
2017-05-15T16:02:30.659Z,29.60
2017-05-15T16:04:58.989Z,33.70
2017-05-15T16:07:27.314Z,31.20
2017-05-15T16:09:55.654Z,33.30
2017-05-15T16:12:23.961Z,34.40
2017-05-15T16:14:52.354Z,32.90
2017-05-15T16:17:20.687Z,31.80
2017-05-15T16:19:49.018Z,32.60
2017-05-15T16:22:17.390Z,34.30
2017-05-15T16:24:45.770Z,34.40
2017-05-15T16:27:14.075Z,33.50
2017-05-15T16:29:43.155Z,35.40
2017-05-15T16:32:11.492Z,34.00
2017-05-15T16:34:39.809Z,33.10
2017-05-15T16:37:08.139Z,36.70
2017-05-15T16:39:36.454Z,35.80
2017-05-15T16:42:04.812Z,35.90
2017-05-15T16:44:33.114Z,37.00
2017-05-15T16:47:01.428Z,37.30
2017-05-15T16:49:30.479Z,36.10
2017-05-15T16:51:58.869Z,35.50
2017-05-15T16:54:27.254Z,38.80
2017-05-15T16:56:56.023Z,35.80
2017-05-15T16:59:24.427Z,36.60
2017-05-15T17:01:52.770Z,36.40
2017-05-15T17:04:21.185Z,36.90
2017-05-15T17:06:49.512Z,35.80
2017-05-15T17:09:17.943Z,36.70
2017-05-15T17:11:46.270Z,37.50
2017-05-15T17:14:14.608Z,37.40
2017-05-15T17:16:42.911Z,38.30
2017-05-15T17:19:11.226Z,39.90
2017-05-15T17:21:39.540Z,36.70
2017-05-15T17:24:07.850Z,38.20
2017-05-15T17:26:36.197Z,38.20
2017-05-15T17:29:04.498Z,38.70
2017-05-15T17:31:33.668Z,35.30
2017-05-15T17:34:01.980Z,37.40
2017-05-15T17:36:30.307Z,36.80
2017-05-15T17:38:58.630Z,38.70
2017-05-15T17:41:27.704Z,37.80
2017-05-15T17:43:56.003Z,40.00
2017-05-15T17:46:25.080Z,41.20
2017-05-15T17:48:53.388Z,38.60
2017-05-15T17:51:21.737Z,37.30
2017-05-15T17:53:50.114Z,48.40
2017-05-15T17:56:18.498Z,45.70
2017-05-15T17:58:46.879Z,45.90
2017-05-15T18:01:15.262Z,46.80
2017-05-15T18:03:43.636Z,44.60
2017-05-15T18:06:12.011Z,46.70
2017-05-15T18:08:40.326Z,49.20
2017-05-15T18:11:08.676Z,51.30
2017-05-15T18:13:37.042Z,46.30
2017-05-15T18:16:05.422Z,48.80
2017-05-15T18:18:33.818Z,48.70
2017-05-15T18:21:02.126Z,46.20
2017-05-15T18:23:30.481Z,49.60
2017-05-15T18:25:59.559Z,51.80
2017-05-15T18:28:27.936Z,51.70
2017-05-15T18:30:56.306Z,53.10
2017-05-15T18:33:24.611Z,48.50
2017-05-15T18:38:47.040Z,51.20
2017-05-15T18:41:15.367Z,53.10
2017-05-15T18:43:44.449Z,51.30
2017-05-15T18:46:12.812Z,50.60
2017-05-15T18:48:44.548Z,50.00
2017-05-15T18:51:12.897Z,51.70
2017-05-15T18:53:41.243Z,50.60
2017-05-15T18:56:09.607Z,53.60
2017-05-15T18:58:37.930Z,54.00
2017-05-15T19:01:09.550Z,54.00
2017-05-15T19:03:37.868Z,55.30
2017-05-15T19:06:06.175Z,55.90
2017-05-15T19:08:34.482Z,55.00
2017-05-15T19:11:02.778Z,55.90
2017-05-15T19:13:31.139Z,56.50
2017-05-15T19:15:59.618Z,57.50
2017-05-15T19:18:27.947Z,57.40
2017-05-15T19:20:56.290Z,58.30
2017-05-15T19:23:24.619Z,58.50
2017-05-15T19:25:52.946Z,57.70
2017-05-15T19:28:21.274Z,58.80
2017-05-15T19:30:49.596Z,59.10
2017-05-15T19:33:17.978Z,59.40
2017-05-15T19:35:46.283Z,59.50
2017-05-15T19:38:15.351Z,59.20
2017-05-15T19:40:43.657Z,59.40
2017-05-15T19:43:12.699Z,60.20
2017-05-15T19:45:41.030Z,59.00
2017-05-15T19:48:10.095Z,59.00
2017-05-15T19:50:38.480Z,59.60
2017-05-15T19:53:13.109Z,59.80
2017-05-15T19:55:41.482Z,60.00
2017-05-15T19:58:09.784Z,60.80
2017-05-15T20:00:38.962Z,61.20
2017-05-15T20:03:07.267Z,61.20
2017-05-15T20:05:36.438Z,61.10
2017-05-15T20:08:05.013Z,60.90
2017-05-15T20:10:33.347Z,61.40
2017-05-15T20:13:01.688Z,62.30
2017-05-15T20:15:30.015Z,63.80
2017-05-15T20:17:58.582Z,62.70
2017-05-15T20:20:27.013Z,63.90
2017-05-15T20:22:55.314Z,62.90
2017-05-15T20:25:23.628Z,62.80
2017-05-15T20:27:51.933Z,62.50
2017-05-15T20:30:20.238Z,63.40
2017-05-15T20:32:48.623Z,64.70
2017-05-15T20:35:16.926Z,64.50
2017-05-15T20:37:45.994Z,63.20
2017-05-15T20:40:14.320Z,64.40
2017-05-15T20:42:42.633Z,64.50
2017-05-15T20:45:11.026Z,64.90
2017-05-15T20:47:39.330Z,64.70
2017-05-15T20:50:08.409Z,65.30
2017-05-15T20:52:36.750Z,65.90
2017-05-15T20:55:05.051Z,66.10
2017-05-15T20:57:33.394Z,65.80
2017-05-15T21:00:01.700Z,66.90
2017-05-15T21:02:30.039Z,65.90
2017-05-15T21:04:58.347Z,66.40
2017-05-15T21:07:26.646Z,67.20
2017-05-15T21:09:55.054Z,67.70
2017-05-15T21:12:24.103Z,66.80
2017-05-15T21:14:52.598Z,66.20
2017-05-15T21:17:20.902Z,66.50
2017-05-15T21:19:49.274Z,67.50
2017-05-15T21:22:17.647Z,66.20
2017-05-15T21:24:46.028Z,66.20
2017-05-15T21:27:14.402Z,67.20
2017-05-15T21:32:37.479Z,66.30
2017-05-15T21:35:05.872Z,66.00
2017-05-15T21:37:34.245Z,65.30
2017-05-15T21:40:02.623Z,63.10
2017-05-15T21:42:30.936Z,64.10
2017-05-15T21:44:59.979Z,64.30
2017-05-15T21:47:28.299Z,64.70
2017-05-15T21:49:56.678Z,63.50
2017-05-15T21:52:25.044Z,65.30
2017-05-15T21:54:53.358Z,64.70
2017-05-15T21:57:21.699Z,65.40
2017-05-15T21:59:49.999Z,63.90
2017-05-15T22:02:19.062Z,63.70
2017-05-15T22:04:47.457Z,63.90
2017-05-15T22:07:15.801Z,60.00
2017-05-15T22:09:44.225Z,60.20
2017-05-15T22:12:12.593Z,63.30
2017-05-15T22:14:40.894Z,62.60
2017-05-15T22:17:09.968Z,62.30
2017-05-15T22:19:38.351Z,63.00
2017-05-15T22:22:06.656Z,60.20
2017-05-15T22:24:36.062Z,60.50
2017-05-15T22:27:04.376Z,59.60
2017-05-15T22:29:32.702Z,63.40
2017-05-15T22:32:01.071Z,62.90
2017-05-15T22:34:29.399Z,62.00
2017-05-15T22:36:57.735Z,63.40
2017-05-15T22:39:26.099Z,60.90
2017-05-15T22:41:54.487Z,59.70
2017-05-15T22:44:22.867Z,58.90
2017-05-15T22:46:51.195Z,58.80
2017-05-15T22:49:19.502Z,58.50
2017-05-15T22:51:47.840Z,58.50
2017-05-15T22:54:16.174Z,58.90
2017-05-15T22:56:44.511Z,58.90
2017-05-15T22:59:12.811Z,59.60
2017-05-15T23:01:41.111Z,59.40
2017-05-15T23:04:09.414Z,60.40
2017-05-15T23:06:38.458Z,61.20
2017-05-15T23:09:06.754Z,61.80
2017-05-15T23:11:35.145Z,63.50
2017-05-15T23:14:03.446Z,64.50
2017-05-15T23:16:32.522Z,61.60
2017-05-15T23:19:00.827Z,61.40
2017-05-15T23:21:29.904Z,62.90
2017-05-15T23:24:05.305Z,63.10
2017-05-15T23:26:33.604Z,61.60
2017-05-15T23:29:02.007Z,63.90
2017-05-15T23:31:30.392Z,62.00
2017-05-15T23:33:58.758Z,64.20
2017-05-15T23:36:27.066Z,62.60
2017-05-15T23:38:56.107Z,63.60
2017-05-15T23:41:24.414Z,63.90
2017-05-15T23:43:52.789Z,63.30
2017-05-15T23:46:21.163Z,62.90
2017-05-15T23:48:49.542Z,63.10
2017-05-15T23:51:17.866Z,62.60
2017-05-15T23:53:46.910Z,62.50
2017-05-15T23:56:15.246Z,62.60
2017-05-15T23:58:43.567Z,61.80
